createdAt,value
2023-03-31T00:00:36.494Z,100054.00
2023-03-31T00:03:10.119Z,100057.00
2023-03-31T00:05:37.617Z,100061.00
2023-03-31T00:08:04.636Z,100051.00
2023-03-31T00:10:34.131Z,100056.00
2023-03-31T00:13:01.976Z,100052.00
2023-03-31T00:15:29.602Z,100062.00
2023-03-31T00:18:00.449Z,100043.00
2023-03-31T00:20:27.535Z,100054.00
2023-03-31T00:22:54.699Z,100055.00
2023-03-31T00:25:21.538Z,100058.00
2023-03-31T00:27:50.437Z,100047.00
2023-03-31T00:30:17.228Z,100041.00
2023-03-31T00:32:44.165Z,100049.00
2023-03-31T00:35:11.454Z,100043.00
2023-03-31T00:37:38.744Z,100037.00
2023-03-31T00:40:09.265Z,100036.00
2023-03-31T00:42:44.173Z,100035.00
2023-03-31T00:45:16.860Z,100035.00
2023-03-31T00:48:10.887Z,100038.00
2023-03-31T00:50:50.439Z,100027.00
2023-03-31T00:53:23.165Z,100025.00
2023-03-31T00:55:55.447Z,100023.00
2023-03-31T00:58:28.310Z,100025.00
2023-03-31T01:01:00.848Z,100020.00
2023-03-31T01:03:30.556Z,100019.00
2023-03-31T01:06:05.411Z,100011.00
2023-03-31T01:08:36.584Z,100007.00
2023-03-31T01:11:11.792Z,100011.00
2023-03-31T01:13:41.752Z,99997.00
2023-03-31T01:16:08.684Z,99998.00
2023-03-31T01:18:36.165Z,99991.00
2023-03-31T01:21:32.806Z,99993.00
2023-03-31T01:24:37.971Z,99980.00
2023-03-31T01:27:43.817Z,99987.00
2023-03-31T01:30:24.995Z,99979.00
2023-03-31T01:33:31.012Z,99973.00
2023-03-31T01:36:25.506Z,99988.00
2023-03-31T01:39:20.145Z,99976.00
2023-03-31T01:41:53.114Z,99986.00
2023-03-31T01:44:43.384Z,99980.00
2023-03-31T01:47:40.828Z,99973.00
2023-03-31T01:50:22.893Z,99969.00
2023-03-31T01:53:23.374Z,99959.00
2023-03-31T01:56:13.583Z,99961.00
2023-03-31T01:58:54.368Z,99961.00
2023-03-31T02:01:43.178Z,99959.00
2023-03-31T02:04:27.351Z,99963.00
2023-03-31T02:07:03.650Z,99961.00
2023-03-31T02:09:37.924Z,99947.00
2023-03-31T02:12:09.832Z,99952.00
2023-03-31T02:14:41.916Z,99951.00
2023-03-31T02:17:18.184Z,99947.00
2023-03-31T02:19:50.943Z,99941.00
2023-03-31T02:22:21.759Z,99942.00
2023-03-31T02:24:52.394Z,99930.00
2023-03-31T02:27:40.427Z,99934.00
2023-03-31T02:30:09.836Z,99924.00
2023-03-31T02:32:40.119Z,99939.00
2023-03-31T02:35:12.807Z,99928.00
2023-03-31T02:37:41.541Z,99922.00
2023-03-31T02:40:16.519Z,99927.00
2023-03-31T02:42:43.878Z,99922.00
2023-03-31T02:45:44.534Z,99920.00
2023-03-31T02:48:19.976Z,99915.00
2023-03-31T02:51:21.541Z,99913.00
2023-03-31T02:54:16.280Z,99905.00
2023-03-31T02:57:10.880Z,99904.00
2023-03-31T02:59:54.928Z,99901.00
2023-03-31T03:02:42.639Z,99899.00
2023-03-31T03:05:35.996Z,99904.00
2023-03-31T03:08:33.544Z,99892.00
2023-03-31T03:11:19.360Z,99891.00
2023-03-31T03:13:55.208Z,99892.00
2023-03-31T03:16:49.770Z,99884.00
2023-03-31T03:19:22.235Z,99881.00
2023-03-31T03:21:49.400Z,99888.00
2023-03-31T03:24:17.906Z,99878.00
2023-03-31T03:26:45.710Z,99888.00
2023-03-31T03:29:15.813Z,99875.00
2023-03-31T03:31:43.159Z,99878.00
2023-03-31T03:34:10.456Z,99877.00
2023-03-31T03:36:38.932Z,99874.00
2023-03-31T03:39:07.797Z,99864.00
2023-03-31T03:41:35.922Z,99864.00
2023-03-31T03:44:02.783Z,99855.00
2023-03-31T03:46:29.777Z,99864.00
2023-03-31T03:48:56.580Z,99862.00
2023-03-31T03:51:23.575Z,99851.00
2023-03-31T03:53:50.573Z,99837.00
2023-03-31T03:56:17.919Z,99844.00
2023-03-31T03:58:45.729Z,99846.00
2023-03-31T04:01:12.518Z,99841.00
2023-03-31T04:03:39.265Z,99838.00
2023-03-31T04:06:06.626Z,99831.00
2023-03-31T04:08:33.582Z,99832.00
2023-03-31T04:11:00.469Z,99835.00
2023-03-31T04:13:27.512Z,99826.00
2023-03-31T04:15:54.606Z,99824.00
2023-03-31T04:18:24.116Z,99832.00
2023-03-31T04:21:06.841Z,99829.00
2023-03-31T04:23:38.700Z,99826.00
2023-03-31T04:26:08.974Z,99825.00
2023-03-31T04:28:37.123Z,99819.00
2023-03-31T04:31:09.397Z,99805.00
2023-03-31T04:33:39.168Z,99799.00
2023-03-31T04:36:18.073Z,99810.00
2023-03-31T04:38:54.826Z,99801.00
2023-03-31T04:41:24.349Z,99801.00
2023-03-31T04:43:51.347Z,99796.00
2023-03-31T04:46:18.271Z,99794.00
2023-03-31T04:48:45.355Z,99788.00
2023-03-31T04:51:15.314Z,99788.00
2023-03-31T04:53:42.146Z,99785.00
2023-03-31T04:56:09.228Z,99781.00
2023-03-31T04:58:36.238Z,99782.00
2023-03-31T05:01:03.517Z,99785.00
2023-03-31T05:03:31.307Z,99773.00
2023-03-31T05:05:58.216Z,99769.00
2023-03-31T05:08:25.036Z,99769.00
2023-03-31T05:10:51.797Z,99761.00
2023-03-31T05:13:18.543Z,99758.00
2023-03-31T05:15:45.438Z,99743.00
2023-03-31T05:18:12.271Z,99750.00
2023-03-31T05:20:39.127Z,99739.00
2023-03-31T05:23:06.951Z,99733.00
2023-03-31T05:25:34.135Z,99745.00
2023-03-31T05:28:02.775Z,99741.00
2023-03-31T05:30:30.015Z,99737.00
2023-03-31T05:32:57.063Z,99744.00
2023-03-31T05:35:24.412Z,99737.00
2023-03-31T05:37:51.534Z,99731.00
2023-03-31T05:40:18.600Z,99728.00
2023-03-31T05:42:45.404Z,99721.00
2023-03-31T05:45:12.661Z,99736.00
2023-03-31T05:47:39.524Z,99731.00
2023-03-31T05:50:09.088Z,99727.00
2023-03-31T05:52:36.292Z,99727.00
2023-03-31T05:55:04.498Z,99719.00
2023-03-31T05:57:31.532Z,99713.00
2023-03-31T05:59:58.562Z,99712.00
2023-03-31T06:02:25.823Z,99714.00
2023-03-31T06:04:52.759Z,99701.00
2023-03-31T06:07:19.566Z,99695.00
2023-03-31T06:09:47.856Z,99699.00
2023-03-31T06:12:15.963Z,99703.00
2023-03-31T06:14:42.975Z,99703.00
2023-03-31T06:17:09.735Z,99700.00
2023-03-31T06:19:36.691Z,99691.00
2023-03-31T06:22:03.581Z,99685.00
2023-03-31T06:24:30.355Z,99684.00
2023-03-31T06:26:57.177Z,99683.00
2023-03-31T06:29:23.991Z,99674.00
2023-03-31T06:31:50.828Z,99673.00
2023-03-31T06:34:18.560Z,99675.00
2023-03-31T06:36:47.663Z,99660.00
2023-03-31T06:39:14.441Z,99667.00
2023-03-31T06:41:41.204Z,99664.00
2023-03-31T06:44:07.945Z,99661.00
2023-03-31T06:46:34.783Z,99669.00
2023-03-31T06:49:01.769Z,99667.00
2023-03-31T06:51:29.710Z,99661.00
2023-03-31T06:53:57.834Z,99660.00
2023-03-31T06:56:24.593Z,99658.00
2023-03-31T06:58:51.428Z,99647.00
2023-03-31T07:01:18.248Z,99650.00
2023-03-31T07:03:45.068Z,99650.00
2023-03-31T07:06:11.940Z,99651.00
2023-03-31T07:08:38.745Z,99644.00
2023-03-31T07:11:06.044Z,99651.00
2023-03-31T07:13:33.147Z,99657.00
2023-03-31T07:16:00.804Z,99641.00
2023-03-31T07:18:34.402Z,99647.00
2023-03-31T07:21:02.282Z,99641.00
2023-03-31T07:23:29.057Z,99627.00
2023-03-31T07:25:55.931Z,99637.00
2023-03-31T07:28:22.735Z,99631.00
2023-03-31T07:30:49.534Z,99627.00
2023-03-31T07:33:16.462Z,99623.00
2023-03-31T07:35:43.306Z,99644.00
2023-03-31T07:38:11.641Z,99635.00
2023-03-31T07:40:40.235Z,99623.00
2023-03-31T07:43:07.924Z,99629.00
2023-03-31T07:45:35.721Z,99625.00
2023-03-31T07:48:03.180Z,99610.00
2023-03-31T07:50:30.411Z,99615.00
2023-03-31T07:52:57.232Z,99606.00
2023-03-31T07:55:26.228Z,99600.00
2023-03-31T07:57:53.154Z,99601.00
2023-03-31T08:00:21.337Z,99605.00
2023-03-31T08:02:48.188Z,99599.00
2023-03-31T08:05:19.498Z,99606.00
2023-03-31T08:07:49.012Z,99598.00
2023-03-31T08:10:21.884Z,99595.00
2023-03-31T08:12:49.199Z,99585.00
2023-03-31T08:15:16.467Z,99584.00
2023-03-31T08:17:44.112Z,99578.00
2023-03-31T08:20:11.832Z,99575.00
2023-03-31T08:22:40.447Z,99575.00
2023-03-31T08:25:09.293Z,99578.00
2023-03-31T08:27:39.812Z,99571.00
2023-03-31T08:30:10.704Z,99567.00
2023-03-31T08:32:38.052Z,99569.00
2023-03-31T08:35:05.798Z,99564.00
2023-03-31T08:37:33.000Z,99570.00
2023-03-31T08:40:00.478Z,99554.00
2023-03-31T08:42:38.993Z,99553.00
2023-03-31T08:45:31.004Z,99549.00
2023-03-31T08:48:38.843Z,99539.00
2023-03-31T08:51:18.553Z,99540.00
2023-03-31T08:54:11.113Z,99539.00
2023-03-31T08:56:48.606Z,99535.00
2023-03-31T08:59:31.641Z,99529.00
2023-03-31T09:02:12.839Z,99530.00
2023-03-31T09:05:07.452Z,99531.00
2023-03-31T09:07:58.749Z,99534.00
2023-03-31T09:10:56.431Z,99520.00
2023-03-31T09:14:17.845Z,99518.00
2023-03-31T09:17:26.949Z,99522.00
2023-03-31T09:20:09.539Z,99517.00
2023-03-31T09:22:47.933Z,99511.00
2023-03-31T09:25:33.999Z,99503.00
2023-03-31T09:28:04.715Z,99504.00
2023-03-31T09:30:36.167Z,99495.00
2023-03-31T09:33:32.148Z,99490.00
2023-03-31T09:36:01.313Z,99492.00
2023-03-31T09:38:29.818Z,99468.00
2023-03-31T09:41:02.498Z,99471.00
2023-03-31T09:43:35.125Z,99475.00
2023-03-31T09:46:09.628Z,99468.00
2023-03-31T09:48:39.000Z,99459.00
2023-03-31T09:51:16.623Z,99457.00
2023-03-31T09:53:53.614Z,99453.00
2023-03-31T09:56:49.168Z,99439.00
2023-03-31T09:59:36.089Z,99450.00
2023-03-31T10:02:25.408Z,99445.00
2023-03-31T10:04:52.557Z,99436.00
2023-03-31T10:07:25.896Z,99432.00
2023-03-31T10:09:55.113Z,99429.00
2023-03-31T10:12:28.287Z,99421.00
2023-03-31T10:15:18.337Z,99430.00
2023-03-31T10:17:54.850Z,99422.00
2023-03-31T10:20:38.623Z,99419.00
2023-03-31T10:23:38.815Z,99409.00
2023-03-31T10:26:06.369Z,99398.00
2023-03-31T10:28:36.039Z,99397.00
2023-03-31T10:31:04.362Z,99396.00
2023-03-31T10:33:34.719Z,99397.00
2023-03-31T10:36:19.664Z,99394.00
2023-03-31T10:38:50.119Z,99400.00
2023-03-31T10:41:24.621Z,99391.00
2023-03-31T10:43:57.700Z,99388.00
2023-03-31T10:46:43.302Z,99393.00
2023-03-31T10:49:41.656Z,99388.00
2023-03-31T10:52:25.932Z,99398.00
2023-03-31T10:54:59.511Z,99390.00
2023-03-31T10:58:03.510Z,99387.00
2023-03-31T11:00:45.009Z,99374.00
2023-03-31T11:03:50.855Z,99360.00
2023-03-31T11:06:29.067Z,99374.00
2023-03-31T11:09:39.955Z,99369.00
2023-03-31T11:12:44.786Z,99361.00
2023-03-31T11:15:32.432Z,99361.00
2023-03-31T11:18:43.342Z,99358.00
2023-03-31T11:21:39.359Z,99358.00
2023-03-31T11:24:40.412Z,99350.00
2023-03-31T11:27:34.117Z,99340.00
2023-03-31T11:30:30.710Z,99343.00
2023-03-31T11:33:48.860Z,99325.00
2023-03-31T11:37:01.641Z,99324.00
2023-03-31T11:39:44.746Z,99309.00
2023-03-31T11:42:35.308Z,99285.00
2023-03-31T11:45:18.824Z,99293.00
2023-03-31T11:47:51.946Z,99287.00
2023-03-31T11:50:28.912Z,99290.00
2023-03-31T11:53:11.337Z,99287.00
2023-03-31T11:55:39.644Z,99288.00
2023-03-31T11:58:16.995Z,99286.00
2023-03-31T12:00:51.850Z,99274.00
2023-03-31T12:03:34.444Z,99273.00
2023-03-31T12:06:17.327Z,99275.00
2023-03-31T12:09:27.464Z,99257.00
2023-03-31T12:12:12.900Z,99254.00
2023-03-31T12:14:46.017Z,99248.00
2023-03-31T12:17:18.255Z,99256.00
2023-03-31T12:19:52.596Z,99250.00
2023-03-31T12:22:36.186Z,99241.00
2023-03-31T12:25:02.988Z,99248.00
2023-03-31T12:27:52.184Z,99235.00
2023-03-31T12:30:31.693Z,99239.00
2023-03-31T12:33:20.313Z,99239.00
2023-03-31T12:36:24.555Z,99227.00
2023-03-31T12:39:19.455Z,99225.00
2023-03-31T12:42:43.101Z,99215.00
2023-03-31T12:45:39.038Z,99216.00
2023-03-31T12:48:56.236Z,99222.00
2023-03-31T12:52:08.745Z,99233.00
2023-03-31T12:55:24.951Z,99232.00
2023-03-31T12:57:51.778Z,99234.00
2023-03-31T13:00:27.207Z,99227.00
2023-03-31T13:03:34.642Z,99228.00
2023-03-31T13:06:05.757Z,99224.00
2023-03-31T13:09:04.412Z,99211.00
2023-03-31T13:11:33.973Z,99213.00
2023-03-31T13:14:24.370Z,99207.00
2023-03-31T13:16:55.821Z,99213.00
2023-03-31T13:19:36.594Z,99216.00
2023-03-31T13:22:06.218Z,99213.00
2023-03-31T13:24:34.591Z,99203.00
2023-03-31T13:27:35.662Z,99192.00
2023-03-31T13:30:02.401Z,99189.00
2023-03-31T13:32:29.387Z,99192.00
2023-03-31T13:35:19.799Z,99195.00
2023-03-31T13:38:23.271Z,99196.00
2023-03-31T13:41:18.646Z,99185.00
2023-03-31T13:44:05.953Z,99194.00
2023-03-31T13:47:10.825Z,99192.00
2023-03-31T13:50:30.321Z,99188.00
2023-03-31T13:53:19.356Z,99191.00
2023-03-31T13:56:12.270Z,99181.00
2023-03-31T13:59:12.538Z,99189.00
2023-03-31T14:02:28.812Z,99186.00
2023-03-31T14:05:16.830Z,99201.00
2023-03-31T14:07:49.888Z,99186.00
2023-03-31T14:10:35.478Z,99189.00
2023-03-31T14:13:18.236Z,99193.00
2023-03-31T14:15:50.557Z,99194.00
2023-03-31T14:18:30.947Z,99185.00
2023-03-31T14:21:50.782Z,99189.00
2023-03-31T14:25:10.504Z,99191.00
2023-03-31T14:28:05.142Z,99201.00
2023-03-31T14:30:46.818Z,99187.00
2023-03-31T14:33:51.261Z,99182.00
2023-03-31T14:36:57.823Z,99181.00
2023-03-31T14:39:36.411Z,99190.00
2023-03-31T14:42:11.590Z,99180.00
2023-03-31T14:44:39.661Z,99173.00
2023-03-31T14:47:11.893Z,99180.00
2023-03-31T14:49:39.543Z,99175.00
2023-03-31T14:52:19.639Z,99174.00
2023-03-31T14:54:47.799Z,99169.00
2023-03-31T14:57:32.263Z,99173.00
2023-03-31T15:00:06.099Z,99166.00
2023-03-31T15:02:36.675Z,99166.00
2023-03-31T15:05:09.785Z,99169.00
2023-03-31T15:07:40.336Z,99167.00
2023-03-31T15:10:07.894Z,99159.00
2023-03-31T15:12:34.843Z,99168.00
2023-03-31T15:15:06.718Z,99159.00
2023-03-31T15:17:42.454Z,99152.00
2023-03-31T15:20:31.096Z,99160.00
2023-03-31T15:23:00.128Z,99161.00
2023-03-31T15:25:42.742Z,99160.00
2023-03-31T15:28:15.456Z,99160.00
2023-03-31T15:30:43.515Z,99153.00
2023-03-31T15:33:29.030Z,99151.00
2023-03-31T15:35:57.832Z,99153.00
2023-03-31T15:38:29.691Z,99156.00
2023-03-31T15:40:57.878Z,99159.00
2023-03-31T15:43:47.500Z,99165.00
2023-03-31T15:46:46.393Z,99154.00
2023-03-31T15:49:24.061Z,99159.00
2023-03-31T15:51:53.067Z,99158.00
2023-03-31T15:54:37.020Z,99147.00
2023-03-31T15:57:07.642Z,99154.00
2023-03-31T15:59:56.979Z,99144.00
2023-03-31T16:02:39.377Z,99153.00
2023-03-31T16:05:10.843Z,99140.00
2023-03-31T16:07:47.423Z,99138.00
2023-03-31T16:10:23.188Z,99128.00
2023-03-31T16:13:04.887Z,99149.00
2023-03-31T16:15:47.976Z,99137.00
2023-03-31T16:18:25.866Z,99135.00
2023-03-31T16:20:58.000Z,99135.00
2023-03-31T16:23:30.344Z,99136.00
2023-03-31T16:25:57.582Z,99137.00
2023-03-31T16:28:29.174Z,99141.00
2023-03-31T16:30:56.029Z,99128.00
2023-03-31T16:33:24.880Z,99140.00
2023-03-31T16:35:56.541Z,99146.00
2023-03-31T16:38:29.643Z,99144.00
2023-03-31T16:40:58.597Z,99152.00
2023-03-31T16:43:31.496Z,99150.00
2023-03-31T16:46:03.360Z,99147.00
2023-03-31T16:48:34.432Z,99146.00
2023-03-31T16:51:02.309Z,99143.00
2023-03-31T16:53:36.940Z,99156.00
2023-03-31T16:56:08.079Z,99156.00
2023-03-31T16:58:38.137Z,99140.00
2023-03-31T17:01:07.467Z,99144.00
2023-03-31T17:03:37.252Z,99140.00
2023-03-31T17:06:08.935Z,99150.00
2023-03-31T17:08:35.749Z,99149.00
2023-03-31T17:11:10.951Z,99150.00
2023-03-31T17:13:40.411Z,99156.00
2023-03-31T17:16:16.514Z,99146.00
2023-03-31T17:18:49.225Z,99155.00
2023-03-31T17:21:19.831Z,99160.00
2023-03-31T17:23:47.574Z,99154.00
2023-03-31T17:26:15.615Z,99152.00
2023-03-31T17:28:43.318Z,99148.00
2023-03-31T17:31:19.400Z,99152.00
2023-03-31T17:33:47.584Z,99153.00
2023-03-31T17:36:15.608Z,99154.00
2023-03-31T17:38:42.753Z,99154.00
2023-03-31T17:41:13.075Z,99149.00
2023-03-31T17:43:43.845Z,99154.00
2023-03-31T17:46:11.847Z,99147.00
2023-03-31T17:48:39.676Z,99150.00
2023-03-31T17:51:15.498Z,99147.00
2023-03-31T17:53:47.410Z,99141.00
2023-03-31T17:56:16.448Z,99161.00
2023-03-31T17:58:43.874Z,99152.00
2023-03-31T18:01:12.641Z,99151.00
2023-03-31T18:03:39.606Z,99156.00
2023-03-31T18:06:12.511Z,99168.00
2023-03-31T18:08:41.653Z,99156.00
2023-03-31T18:11:10.679Z,99157.00
2023-03-31T18:13:37.868Z,99166.00
2023-03-31T18:16:06.165Z,99162.00
2023-03-31T18:18:33.515Z,99161.00
2023-03-31T18:21:08.509Z,99155.00
2023-03-31T18:23:36.684Z,99166.00
2023-03-31T18:26:08.214Z,99158.00
2023-03-31T18:28:35.334Z,99166.00
2023-03-31T18:31:07.691Z,99160.00
2023-03-31T18:33:35.630Z,99164.00
2023-03-31T18:36:03.271Z,99162.00
2023-03-31T18:38:30.325Z,99156.00
2023-03-31T18:40:58.005Z,99155.00
2023-03-31T18:43:26.266Z,99154.00
2023-03-31T18:45:55.635Z,99159.00
2023-03-31T18:48:23.264Z,99162.00
2023-03-31T18:50:51.954Z,99164.00
2023-03-31T18:53:21.027Z,99156.00
2023-03-31T18:55:58.375Z,99157.00
2023-03-31T18:58:29.228Z,99167.00
2023-03-31T19:00:57.991Z,99166.00
2023-03-31T19:03:26.564Z,99157.00
2023-03-31T19:06:14.133Z,99166.00
2023-03-31T19:08:41.175Z,99167.00
2023-03-31T19:11:14.703Z,99173.00
2023-03-31T19:13:43.065Z,99167.00
2023-03-31T19:16:12.190Z,99168.00
2023-03-31T19:18:39.783Z,99178.00
2023-03-31T19:21:06.842Z,99173.00
2023-03-31T19:23:34.258Z,99172.00
2023-03-31T19:26:02.565Z,99174.00
2023-03-31T19:28:30.513Z,99169.00
2023-03-31T19:30:58.891Z,99178.00
2023-03-31T19:33:26.848Z,99174.00
2023-03-31T19:35:54.847Z,99176.00
2023-03-31T19:38:21.978Z,99178.00
2023-03-31T19:40:49.983Z,99185.00
2023-03-31T19:43:21.257Z,99181.00
2023-03-31T19:45:48.895Z,99177.00
2023-03-31T19:48:16.653Z,99178.00
2023-03-31T19:50:51.826Z,99180.00
2023-03-31T19:53:19.654Z,99171.00
2023-03-31T19:56:01.762Z,99176.00
2023-03-31T19:58:31.037Z,99170.00
2023-03-31T20:00:58.325Z,99188.00
2023-03-31T20:03:27.226Z,99182.00
2023-03-31T20:06:12.827Z,99178.00
2023-03-31T20:08:44.715Z,99180.00
2023-03-31T20:11:14.651Z,99178.00
2023-03-31T20:13:43.420Z,99169.00
2023-03-31T20:16:15.079Z,99176.00
2023-03-31T20:18:47.749Z,99175.00
2023-03-31T20:21:17.964Z,99169.00
2023-03-31T20:23:46.410Z,99163.00
2023-03-31T20:26:17.514Z,99162.00
2023-03-31T20:28:45.191Z,99158.00
2023-03-31T20:31:17.648Z,99166.00
2023-03-31T20:33:46.089Z,99164.00
2023-03-31T20:36:20.556Z,99168.00
2023-03-31T20:38:51.357Z,99175.00
2023-03-31T20:41:21.992Z,99163.00
2023-03-31T20:43:50.433Z,99181.00
2023-03-31T20:46:18.699Z,99170.00
2023-03-31T20:48:51.714Z,99175.00
2023-03-31T20:51:22.267Z,99168.00
2023-03-31T20:53:53.073Z,99159.00
2023-03-31T20:56:29.248Z,99170.00
2023-03-31T20:58:58.976Z,99169.00
2023-03-31T21:01:34.294Z,99165.00
2023-03-31T21:04:03.461Z,99168.00
2023-03-31T21:06:38.021Z,99172.00
2023-03-31T21:09:05.328Z,99174.00
2023-03-31T21:11:32.876Z,99173.00
2023-03-31T21:14:00.286Z,99182.00
2023-03-31T21:16:27.330Z,99179.00
2023-03-31T21:18:59.718Z,99183.00
2023-03-31T21:21:27.305Z,99178.00
2023-03-31T21:23:54.868Z,99183.00
2023-03-31T21:26:23.048Z,99184.00
2023-03-31T21:28:55.082Z,99181.00
2023-03-31T21:31:24.463Z,99186.00
2023-03-31T21:33:53.279Z,99181.00
2023-03-31T21:36:22.646Z,99181.00
2023-03-31T21:38:52.059Z,99189.00
2023-03-31T21:41:24.128Z,99190.00
2023-03-31T21:43:51.303Z,99193.00
2023-03-31T21:46:26.936Z,99188.00
2023-03-31T21:48:55.130Z,99195.00
2023-03-31T21:51:23.367Z,99180.00
2023-03-31T21:53:55.093Z,99193.00
2023-03-31T21:56:24.383Z,99190.00
2023-03-31T21:58:51.189Z,99192.00
2023-03-31T22:01:19.046Z,99192.00
2023-03-31T22:03:46.727Z,99189.00
2023-03-31T22:06:13.571Z,99193.00
2023-03-31T22:08:42.723Z,99190.00
2023-03-31T22:11:12.599Z,99194.00
2023-03-31T22:13:39.715Z,99196.00
2023-03-31T22:16:19.112Z,99203.00
2023-03-31T22:18:47.616Z,99194.00
2023-03-31T22:21:25.020Z,99198.00
2023-03-31T22:23:57.940Z,99184.00
2023-03-31T22:26:27.057Z,99200.00
2023-03-31T22:28:54.376Z,99197.00
2023-03-31T22:31:22.116Z,99202.00
2023-03-31T22:33:49.907Z,99189.00
2023-03-31T22:36:16.739Z,99205.00
2023-03-31T22:38:43.745Z,99201.00
2023-03-31T22:41:10.727Z,99201.00
2023-03-31T22:43:37.578Z,99206.00
2023-03-31T22:46:07.303Z,99206.00
2023-03-31T22:48:34.905Z,99207.00
2023-03-31T22:51:05.992Z,99206.00
2023-03-31T22:53:33.655Z,99210.00
2023-03-31T22:56:11.835Z,99210.00
2023-03-31T22:58:38.911Z,99211.00
2023-03-31T23:01:07.464Z,99213.00
2023-03-31T23:03:34.391Z,99212.00
2023-03-31T23:06:06.209Z,99220.00
2023-03-31T23:08:35.736Z,99225.00
2023-03-31T23:11:06.028Z,99219.00
2023-03-31T23:13:33.459Z,99217.00
2023-03-31T23:16:13.326Z,99224.00
2023-03-31T23:18:44.391Z,99221.00
2023-03-31T23:21:11.837Z,99219.00
2023-03-31T23:23:42.279Z,99221.00
2023-03-31T23:26:09.715Z,99228.00
2023-03-31T23:28:37.977Z,99217.00
2023-03-31T23:31:05.576Z,99219.00
2023-03-31T23:33:32.388Z,99218.00
2023-03-31T23:36:06.082Z,99225.00
2023-03-31T23:38:34.130Z,99211.00
2023-03-31T23:41:02.318Z,99214.00
2023-03-31T23:43:30.125Z,99221.00
2023-03-31T23:45:56.961Z,99213.00
2023-03-31T23:48:23.734Z,99207.00
2023-03-31T23:50:51.089Z,99218.00
2023-03-31T23:53:17.819Z,99224.00
2023-03-31T23:55:53.183Z,99215.00
2023-03-31T23:58:20.184Z,99216.00
